createdAt,value
2019-05-18T00:00:49.746Z,0.00
2019-05-18T00:01:49.734Z,0.00
2019-05-18T00:02:49.724Z,0.00
2019-05-18T00:03:49.714Z,0.00
2019-05-18T00:04:49.714Z,0.00
2019-05-18T00:05:49.704Z,0.00
2019-05-18T00:06:49.684Z,0.00
2019-05-18T00:07:49.680Z,0.00
2019-05-18T00:08:49.661Z,0.00
2019-05-18T00:09:49.649Z,0.00
2019-05-18T00:10:49.649Z,0.00
2019-05-18T00:11:49.638Z,0.00
2019-05-18T00:12:49.617Z,0.00
2019-05-18T00:13:49.610Z,0.00
2019-05-18T00:14:49.598Z,0.00
2019-05-18T00:15:49.588Z,0.00
2019-05-18T00:16:49.596Z,0.00
2019-05-18T00:17:49.572Z,0.00
2019-05-18T00:18:49.553Z,0.00
2019-05-18T00:19:49.542Z,0.00
2019-05-18T00:20:49.533Z,0.00
2019-05-18T00:21:49.521Z,0.00
2019-05-18T00:22:49.519Z,0.00
2019-05-18T00:23:49.514Z,0.00
2019-05-18T00:24:49.489Z,0.00
2019-05-18T00:25:49.478Z,0.00
2019-05-18T00:26:49.467Z,0.00
2019-05-18T00:27:49.459Z,0.00
2019-05-18T00:28:49.458Z,0.00
2019-05-18T00:29:49.445Z,0.00
2019-05-18T00:30:49.425Z,0.00
2019-05-18T00:31:49.413Z,0.00
2019-05-18T00:32:49.404Z,0.00
2019-05-18T00:33:49.393Z,0.00
2019-05-18T00:34:49.395Z,0.00
2019-05-18T00:35:49.387Z,0.00
2019-05-18T00:36:49.368Z,0.00
2019-05-18T00:37:49.350Z,0.00
2019-05-18T00:38:49.340Z,0.00
2019-05-18T00:39:49.328Z,0.00
2019-05-18T00:40:49.328Z,0.00
2019-05-18T00:41:49.313Z,0.00
2019-05-18T00:42:49.297Z,0.00
2019-05-18T00:43:49.286Z,0.00
2019-05-18T00:44:49.305Z,0.00
2019-05-18T00:45:49.263Z,0.00
2019-05-18T00:46:49.264Z,0.00
2019-05-18T00:47:49.253Z,0.00
2019-05-18T00:48:49.231Z,0.00
2019-05-18T00:49:49.219Z,0.00
2019-05-18T00:50:49.209Z,0.00
2019-05-18T00:51:49.197Z,0.00
2019-05-18T00:52:49.197Z,0.00
2019-05-18T00:53:49.188Z,0.00
2019-05-18T00:54:49.168Z,0.00
2019-05-18T00:55:49.156Z,0.00
2019-05-18T00:56:49.144Z,0.00
2019-05-18T00:57:49.132Z,0.00
2019-05-18T00:58:49.132Z,0.00
2019-05-18T00:59:49.119Z,0.00
2019-05-18T01:00:49.102Z,0.00
2019-05-18T01:01:49.092Z,0.00
2019-05-18T01:02:49.081Z,0.00
2019-05-18T01:03:49.068Z,0.00
2019-05-18T01:04:49.067Z,0.00
2019-05-18T01:05:49.056Z,0.00
2019-05-18T01:06:49.038Z,0.00
2019-05-18T01:07:49.025Z,0.00
2019-05-18T01:08:49.017Z,0.00
2019-05-18T01:09:49.004Z,0.00
2019-05-18T01:10:49.002Z,0.00
2019-05-18T01:11:48.989Z,0.00
2019-05-18T01:12:48.972Z,0.00
2019-05-18T01:13:48.960Z,0.00
2019-05-18T01:14:48.954Z,0.00
2019-05-18T01:15:48.941Z,0.00
2019-05-18T01:16:48.941Z,0.00
2019-05-18T01:17:56.790Z,0.00
2019-05-18T01:18:49.910Z,0.00
2019-05-18T01:19:48.897Z,0.00
2019-05-18T01:20:48.887Z,0.00
2019-05-18T01:21:48.874Z,0.00
2019-05-18T01:22:48.874Z,0.00
2019-05-18T01:23:48.862Z,0.00
2019-05-18T01:24:48.843Z,0.00
2019-05-18T01:25:48.831Z,0.00
2019-05-18T01:26:48.818Z,0.00
2019-05-18T01:27:48.808Z,0.00
2019-05-18T01:28:48.805Z,0.00
2019-05-18T01:29:48.793Z,0.00
2019-05-18T01:30:48.774Z,0.00
2019-05-18T01:31:48.765Z,0.00
2019-05-18T01:32:48.753Z,0.00
2019-05-18T01:33:48.742Z,0.00
2019-05-18T01:34:48.742Z,0.00
2019-05-18T01:35:48.736Z,0.00
2019-05-18T01:36:48.711Z,0.00
2019-05-18T01:37:48.701Z,0.00
2019-05-18T01:38:48.690Z,0.00
2019-05-18T01:39:48.682Z,0.00
2019-05-18T01:40:48.682Z,0.00
2019-05-18T01:41:48.667Z,0.00
2019-05-18T01:42:48.650Z,0.00
2019-05-18T01:43:48.636Z,0.00
2019-05-18T01:44:48.629Z,0.00
2019-05-18T01:45:48.614Z,0.00
2019-05-18T01:46:48.617Z,0.00
2019-05-18T01:47:48.602Z,0.00
2019-05-18T01:48:48.582Z,0.00
2019-05-18T01:49:48.612Z,0.00
2019-05-18T01:50:48.564Z,0.00
2019-05-18T01:51:48.555Z,0.00
2019-05-18T01:52:48.551Z,0.00
2019-05-18T01:53:48.545Z,0.00
2019-05-18T01:54:48.519Z,0.00
2019-05-18T01:55:48.507Z,0.00
2019-05-18T01:56:48.498Z,0.00
2019-05-18T01:57:48.496Z,0.00
2019-05-18T01:58:48.487Z,0.00
2019-05-18T01:59:48.474Z,0.00
2019-05-18T02:00:48.455Z,0.00
2019-05-18T02:01:48.461Z,0.00
2019-05-18T02:02:48.434Z,0.00
2019-05-18T02:03:49.305Z,0.00
2019-05-18T02:04:48.425Z,0.00
2019-05-18T02:05:48.434Z,0.00
2019-05-18T02:06:48.393Z,0.00
2019-05-18T02:07:48.382Z,0.00
2019-05-18T02:08:48.380Z,0.00
2019-05-18T02:09:48.363Z,0.00
2019-05-18T02:10:48.363Z,0.00
2019-05-18T02:11:48.359Z,0.00
2019-05-18T02:12:48.329Z,0.00
2019-05-18T02:13:48.318Z,0.00
2019-05-18T02:14:48.309Z,0.00
2019-05-18T02:15:48.300Z,0.00
2019-05-18T02:16:48.305Z,0.00
2019-05-18T02:17:48.287Z,0.00
2019-05-18T02:18:48.289Z,0.00
2019-05-18T02:19:48.256Z,0.00
2019-05-18T02:20:48.245Z,0.00
2019-05-18T02:21:48.240Z,0.00
2019-05-18T02:22:48.234Z,0.00
2019-05-18T02:23:48.222Z,0.00
2019-05-18T02:24:48.201Z,0.00
2019-05-18T02:25:48.192Z,0.00
2019-05-18T02:26:48.180Z,0.00
2019-05-18T02:27:48.171Z,0.00
2019-05-18T02:28:48.181Z,0.00
2019-05-18T02:29:48.157Z,0.00
2019-05-18T02:30:48.139Z,0.00
2019-05-18T02:31:48.130Z,0.00
2019-05-18T02:32:48.118Z,0.00
2019-05-18T02:33:48.107Z,0.00
2019-05-18T02:34:48.114Z,0.00
2019-05-18T02:35:48.096Z,0.00
2019-05-18T02:36:48.074Z,0.00
2019-05-18T02:37:48.066Z,0.00
2019-05-18T02:38:48.053Z,0.00
2019-05-18T02:39:48.040Z,0.00
2019-05-18T02:40:48.049Z,0.00
2019-05-18T02:41:48.043Z,0.00
2019-05-18T02:42:48.010Z,0.00
2019-05-18T02:43:48.011Z,0.00
2019-05-18T02:44:47.988Z,0.00
2019-05-18T02:45:47.978Z,0.00
2019-05-18T02:46:47.977Z,0.00
2019-05-18T02:47:47.963Z,0.00
2019-05-18T02:48:50.507Z,0.00
2019-05-18T02:49:47.934Z,0.00
2019-05-18T02:50:47.924Z,0.00
2019-05-18T02:51:47.913Z,0.00
2019-05-18T02:52:47.943Z,0.00
2019-05-18T02:53:47.902Z,0.00
2019-05-18T02:54:47.881Z,0.00
2019-05-18T02:55:47.873Z,0.00
2019-05-18T02:56:47.859Z,0.00
2019-05-18T02:57:47.847Z,0.00
2019-05-18T02:58:47.851Z,0.00
2019-05-18T02:59:47.838Z,0.00
2019-05-18T03:00:47.815Z,0.00
2019-05-18T03:01:47.806Z,0.00
2019-05-18T03:02:47.798Z,0.00
2019-05-18T03:03:47.783Z,0.00
2019-05-18T03:04:47.789Z,0.00
2019-05-18T03:05:47.774Z,0.00
2019-05-18T03:06:47.751Z,0.00
2019-05-18T03:07:47.738Z,0.00
2019-05-18T03:08:47.728Z,0.00
2019-05-18T03:09:47.718Z,0.00
2019-05-18T03:10:47.718Z,0.00
2019-05-18T03:11:47.708Z,0.00
2019-05-18T03:12:47.686Z,0.00
2019-05-18T03:13:47.679Z,0.00
2019-05-18T03:14:47.664Z,0.00
2019-05-18T03:15:47.657Z,0.00
2019-05-18T03:16:47.652Z,0.00
2019-05-18T03:17:47.648Z,0.00
2019-05-18T03:19:04.857Z,0.00
2019-05-18T03:19:48.607Z,0.00
2019-05-18T03:20:47.600Z,5.62
2019-05-18T03:21:47.587Z,5.62
2019-05-18T03:22:47.589Z,5.62
2019-05-18T03:23:47.579Z,5.62
2019-05-18T03:24:47.558Z,5.62
2019-05-18T03:25:47.548Z,5.62
2019-05-18T03:26:47.538Z,5.62
2019-05-18T03:27:47.521Z,5.62
2019-05-18T03:28:47.523Z,5.62
2019-05-18T03:29:47.529Z,11.25
2019-05-18T03:30:47.493Z,11.25
2019-05-18T03:31:47.486Z,11.25
2019-05-18T03:32:47.493Z,11.25
2019-05-18T03:33:47.459Z,11.25
2019-05-18T03:34:47.506Z,11.25
2019-05-18T03:35:47.451Z,16.88
2019-05-18T03:36:47.436Z,16.88
2019-05-18T03:37:47.416Z,16.88
2019-05-18T03:38:47.403Z,16.88
2019-05-18T03:39:47.393Z,22.50
2019-05-18T03:40:47.393Z,22.50
2019-05-18T03:41:47.386Z,22.50
2019-05-18T03:42:47.361Z,28.12
2019-05-18T03:43:47.351Z,28.12
2019-05-18T03:44:47.350Z,33.75
2019-05-18T03:45:47.328Z,33.75
2019-05-18T03:46:47.332Z,33.75
2019-05-18T03:47:47.314Z,39.38
2019-05-18T03:48:47.296Z,39.38
2019-05-18T03:49:47.286Z,39.38
2019-05-18T03:50:47.276Z,45.00
2019-05-18T03:51:47.264Z,45.00
2019-05-18T03:52:47.271Z,50.62
2019-05-18T03:53:47.252Z,56.25
2019-05-18T03:54:47.235Z,56.25
2019-05-18T03:55:47.221Z,61.88
2019-05-18T03:56:47.210Z,56.25
2019-05-18T03:57:47.204Z,61.88
2019-05-18T03:58:47.210Z,67.50
2019-05-18T03:59:47.186Z,67.50
2019-05-18T04:00:47.169Z,73.12
2019-05-18T04:01:47.159Z,78.75
2019-05-18T04:02:47.154Z,90.00
2019-05-18T04:03:47.137Z,90.00
2019-05-18T04:04:47.140Z,95.62
2019-05-18T04:05:47.141Z,101.25
2019-05-18T04:06:47.103Z,112.50
2019-05-18T04:07:47.093Z,118.12
2019-05-18T04:08:47.091Z,129.38
2019-05-18T04:09:47.072Z,146.25
2019-05-18T04:10:47.072Z,157.50
2019-05-18T04:11:47.062Z,163.12
2019-05-18T04:12:47.041Z,168.75
2019-05-18T04:13:47.030Z,174.38
2019-05-18T04:14:47.018Z,180.00
2019-05-18T04:15:47.010Z,185.62
2019-05-18T04:16:47.007Z,196.88
2019-05-18T04:17:47.000Z,208.12
2019-05-18T04:18:46.977Z,208.12
2019-05-18T04:19:47.608Z,225.00
2019-05-18T04:20:46.954Z,225.00
2019-05-18T04:21:46.946Z,230.62
2019-05-18T04:22:46.947Z,230.62
2019-05-18T04:23:46.933Z,236.25
2019-05-18T04:24:46.911Z,247.50
2019-05-18T04:25:46.901Z,253.12
2019-05-18T04:26:46.899Z,264.38
2019-05-18T04:27:46.880Z,281.25
2019-05-18T04:28:46.879Z,281.25
2019-05-18T04:29:46.874Z,309.38
2019-05-18T04:30:46.855Z,331.88
2019-05-18T04:31:46.838Z,360.00
2019-05-18T04:32:46.825Z,393.75
2019-05-18T04:33:46.816Z,405.00
2019-05-18T04:34:46.817Z,405.00
2019-05-18T04:35:46.806Z,405.00
2019-05-18T04:36:46.784Z,410.62
2019-05-18T04:37:46.771Z,427.50
2019-05-18T04:38:46.763Z,444.38
2019-05-18T04:39:46.751Z,472.50
2019-05-18T04:40:46.864Z,500.62
2019-05-18T04:41:46.737Z,534.38
2019-05-18T04:42:46.718Z,590.62
2019-05-18T04:43:46.707Z,658.12
2019-05-18T04:44:46.700Z,720.00
2019-05-18T04:45:46.695Z,793.12
2019-05-18T04:46:46.706Z,900.00
2019-05-18T04:47:48.720Z,1012.50
2019-05-18T04:48:46.664Z,1074.38
2019-05-18T04:50:03.808Z,1125.00
2019-05-18T04:50:47.631Z,1147.50
2019-05-18T04:51:46.625Z,1158.75
2019-05-18T04:52:46.634Z,1125.00
2019-05-18T04:53:46.607Z,1080.00
2019-05-18T04:54:46.590Z,1085.62
2019-05-18T04:55:46.579Z,1068.75
2019-05-18T04:56:46.569Z,1035.00
2019-05-18T04:57:46.563Z,1006.88
2019-05-18T04:58:46.565Z,1006.88
2019-05-18T04:59:46.545Z,1029.38
2019-05-18T05:00:46.524Z,1001.25
2019-05-18T05:01:46.521Z,990.00
2019-05-18T05:02:46.504Z,956.25
2019-05-18T05:03:46.494Z,956.25
2019-05-18T05:04:46.493Z,967.50
2019-05-18T05:05:46.498Z,995.62
2019-05-18T05:06:46.459Z,973.12
2019-05-18T05:07:46.450Z,939.38
2019-05-18T05:08:46.438Z,911.25
2019-05-18T05:09:46.428Z,894.38
2019-05-18T05:10:46.430Z,883.12
2019-05-18T05:11:46.417Z,877.50
2019-05-18T05:12:46.395Z,866.25
2019-05-18T05:13:46.387Z,849.38
2019-05-18T05:14:46.376Z,832.50
2019-05-18T05:15:46.362Z,810.00
2019-05-18T05:16:46.363Z,759.38
2019-05-18T05:17:46.354Z,708.75
2019-05-18T05:18:46.330Z,635.62
2019-05-18T05:19:46.321Z,562.50
2019-05-18T05:20:46.309Z,534.38
2019-05-18T05:21:46.300Z,523.12
2019-05-18T05:22:46.298Z,517.50
2019-05-18T05:23:46.287Z,511.88
2019-05-18T05:24:46.266Z,523.12
2019-05-18T05:25:46.256Z,517.50
2019-05-18T05:26:46.245Z,517.50
2019-05-18T05:27:46.234Z,517.50
2019-05-18T05:28:46.236Z,523.12
2019-05-18T05:29:46.220Z,523.12
2019-05-18T05:30:46.201Z,528.75
2019-05-18T05:31:46.193Z,534.38
2019-05-18T05:32:46.180Z,540.00
2019-05-18T05:33:46.170Z,540.00
2019-05-18T05:34:46.214Z,545.62
2019-05-18T05:35:46.158Z,551.25
2019-05-18T05:36:46.138Z,556.88
2019-05-18T05:37:46.129Z,562.50
2019-05-18T05:38:46.117Z,562.50
2019-05-18T05:39:46.107Z,568.12
2019-05-18T05:40:46.106Z,579.38
2019-05-18T05:41:46.094Z,585.00
2019-05-18T05:42:46.075Z,585.00
2019-05-18T05:43:46.477Z,590.62
2019-05-18T05:44:46.055Z,596.25
2019-05-18T05:45:46.043Z,601.88
2019-05-18T05:46:46.055Z,601.88
2019-05-18T05:47:46.022Z,613.12
2019-05-18T05:48:46.010Z,618.75
2019-05-18T05:49:46.008Z,635.62
2019-05-18T05:50:45.988Z,646.88
2019-05-18T05:51:45.981Z,680.62
2019-05-18T05:52:45.977Z,765.00
2019-05-18T05:53:45.960Z,866.25
2019-05-18T05:54:45.959Z,995.62
2019-05-18T05:55:45.934Z,1113.75
2019-05-18T05:56:45.926Z,1153.12
2019-05-18T05:57:45.913Z,1091.25
2019-05-18T05:58:45.912Z,1080.00
2019-05-18T05:59:45.891Z,1113.75
2019-05-18T06:00:45.889Z,1153.12
2019-05-18T06:01:45.871Z,1175.62
2019-05-18T06:02:45.862Z,1282.50
2019-05-18T06:03:45.847Z,1417.50
2019-05-18T06:04:45.849Z,1406.25
2019-05-18T06:05:45.827Z,1417.50
2019-05-18T06:06:45.825Z,1451.25
2019-05-18T06:07:45.805Z,1490.62
2019-05-18T06:08:45.794Z,1400.62
2019-05-18T06:09:45.786Z,1535.62
2019-05-18T06:10:45.786Z,1783.12
2019-05-18T06:11:45.762Z,2030.62
2019-05-18T06:12:45.770Z,1136.25
2019-05-18T06:13:45.741Z,1771.88
2019-05-18T06:14:45.731Z,1372.50
2019-05-18T06:15:45.722Z,1321.88
2019-05-18T06:16:45.725Z,1265.62
2019-05-18T06:17:45.699Z,1170.00
2019-05-18T06:18:45.711Z,1096.88
2019-05-18T06:19:45.679Z,1035.00
2019-05-18T06:20:51.393Z,990.00
2019-05-18T06:21:46.669Z,961.88
2019-05-18T06:22:45.678Z,950.62
2019-05-18T06:23:45.635Z,950.62
2019-05-18T06:24:45.636Z,956.25
2019-05-18T06:25:45.613Z,945.00
2019-05-18T06:26:45.604Z,945.00
2019-05-18T06:27:45.613Z,945.00
2019-05-18T06:28:45.582Z,933.75
2019-05-18T06:29:45.572Z,916.88
2019-05-18T06:30:45.576Z,911.25
2019-05-18T06:31:45.551Z,911.25
2019-05-18T06:32:45.540Z,956.25
2019-05-18T06:33:45.539Z,1085.62
2019-05-18T06:34:45.519Z,1361.25
2019-05-18T06:35:45.518Z,1558.12
2019-05-18T06:36:45.499Z,1636.88
2019-05-18T06:37:45.486Z,1496.25
2019-05-18T06:38:45.476Z,1147.50
2019-05-18T06:39:45.476Z,1091.25
2019-05-18T06:40:45.454Z,1563.75
2019-05-18T06:41:45.451Z,1530.00
2019-05-18T06:42:45.433Z,1395.00
2019-05-18T06:43:45.422Z,1423.12
2019-05-18T06:44:45.412Z,1603.12
2019-05-18T06:45:45.413Z,1833.75
2019-05-18T06:46:45.389Z,2019.38
2019-05-18T06:47:48.261Z,2047.50
2019-05-18T06:48:45.369Z,1980.00
2019-05-18T06:49:45.360Z,1946.25
2019-05-18T06:50:45.349Z,1856.25
2019-05-18T06:51:45.346Z,1951.88
2019-05-18T06:52:45.325Z,1940.62
2019-05-18T06:53:45.324Z,2086.88
2019-05-18T06:54:45.317Z,2103.75
2019-05-18T06:55:45.294Z,2098.12
2019-05-18T06:56:45.281Z,2148.75
2019-05-18T06:57:45.281Z,2165.62
2019-05-18T06:58:45.260Z,2317.50
2019-05-18T06:59:45.255Z,2390.62
2019-05-18T07:00:45.241Z,2362.50
2019-05-18T07:01:45.230Z,2362.50
2019-05-18T07:02:45.219Z,2182.50
2019-05-18T07:03:45.249Z,2148.75
2019-05-18T07:04:45.197Z,2261.25
2019-05-18T07:05:45.195Z,2221.88
2019-05-18T07:06:45.182Z,2306.25
2019-05-18T07:07:45.164Z,2328.75
2019-05-18T07:08:45.156Z,2362.50
2019-05-18T07:09:45.153Z,2396.25
2019-05-18T07:10:45.134Z,2334.38
2019-05-18T07:11:45.128Z,1968.75
2019-05-18T07:12:45.111Z,1828.12
2019-05-18T07:13:45.099Z,2075.62
2019-05-18T07:14:45.091Z,2340.00
2019-05-18T07:15:45.090Z,2486.25
2019-05-18T07:16:45.098Z,2295.00
2019-05-18T07:17:45.065Z,2300.62
2019-05-18T07:18:45.051Z,2503.12
2019-05-18T07:19:45.039Z,2576.25
2019-05-18T07:20:45.025Z,2643.75
2019-05-18T07:21:45.025Z,2688.75
2019-05-18T07:22:45.006Z,2683.12
2019-05-18T07:23:45.003Z,2722.50
2019-05-18T07:24:44.983Z,2694.38
2019-05-18T07:25:44.973Z,2784.38
2019-05-18T07:26:44.961Z,2829.38
2019-05-18T07:27:44.964Z,2671.88
2019-05-18T07:28:44.940Z,2469.38
2019-05-18T07:29:44.948Z,2418.75
2019-05-18T07:30:44.921Z,2666.25
2019-05-18T07:31:44.909Z,2846.25
2019-05-18T07:32:44.899Z,2818.12
2019-05-18T07:33:44.900Z,2806.88
2019-05-18T07:34:44.878Z,2745.00
2019-05-18T07:35:44.881Z,2975.62
2019-05-18T07:36:44.856Z,3189.38
2019-05-18T07:37:44.849Z,3054.38
2019-05-18T07:38:44.837Z,2503.12
2019-05-18T07:39:44.840Z,2351.25
2019-05-18T07:40:44.813Z,2565.00
2019-05-18T07:41:47.103Z,2587.50
2019-05-18T07:42:44.791Z,2930.62
2019-05-18T07:43:44.783Z,3150.00
2019-05-18T07:44:44.776Z,2891.25
2019-05-18T07:45:44.771Z,2463.75
2019-05-18T07:46:44.756Z,2334.38
2019-05-18T07:47:44.755Z,2486.25
2019-05-18T07:48:44.729Z,2643.75
2019-05-18T07:49:44.723Z,2638.12
2019-05-18T07:50:44.723Z,2722.50
2019-05-18T07:51:44.713Z,2840.62
2019-05-18T07:52:44.692Z,3037.50
2019-05-18T07:53:44.691Z,3161.25
2019-05-18T07:54:44.669Z,2874.38
2019-05-18T07:55:44.658Z,2829.38
2019-05-18T07:56:44.657Z,2913.75
2019-05-18T07:57:44.644Z,2936.25
2019-05-18T07:58:44.625Z,2806.88
2019-05-18T07:59:44.631Z,2964.38
2019-05-18T08:00:44.608Z,3268.12
2019-05-18T08:01:44.594Z,3178.12
2019-05-18T08:02:44.583Z,2778.75
2019-05-18T08:03:44.581Z,2688.75
2019-05-18T08:04:44.560Z,2520.00
2019-05-18T08:05:44.557Z,2626.88
2019-05-18T08:06:44.549Z,3054.38
2019-05-18T08:07:44.576Z,3189.38
2019-05-18T08:08:44.519Z,3189.38
2019-05-18T08:09:44.523Z,3301.88
2019-05-18T08:10:44.497Z,3183.75
2019-05-18T08:11:44.499Z,3228.75
2019-05-18T08:12:44.476Z,3082.50
2019-05-18T08:13:44.467Z,3110.62
2019-05-18T08:14:44.457Z,3240.00
2019-05-18T08:15:44.456Z,3262.50
2019-05-18T08:16:44.434Z,3138.75
2019-05-18T08:17:44.438Z,2778.75
2019-05-18T08:18:44.416Z,2812.50
2019-05-18T08:19:44.410Z,2688.75
2019-05-18T08:20:44.397Z,2435.62
2019-05-18T08:21:52.947Z,2610.00
2019-05-18T08:22:45.373Z,2694.38
2019-05-18T08:23:44.372Z,1996.88
2019-05-18T08:24:44.352Z,1687.50
2019-05-18T08:25:44.345Z,1198.12
2019-05-18T08:26:44.337Z,1125.00
2019-05-18T08:27:44.342Z,1040.62
2019-05-18T08:28:44.317Z,967.50
2019-05-18T08:29:44.307Z,911.25
2019-05-18T08:30:44.301Z,883.12
2019-05-18T08:31:44.281Z,860.62
2019-05-18T08:32:44.273Z,821.25
2019-05-18T08:33:44.270Z,787.50
2019-05-18T08:34:44.250Z,759.38
2019-05-18T08:35:44.249Z,770.62
2019-05-18T08:36:44.229Z,765.00
2019-05-18T08:37:44.217Z,776.25
2019-05-18T08:38:44.209Z,759.38
2019-05-18T08:39:44.211Z,736.88
2019-05-18T08:40:44.187Z,708.75
2019-05-18T08:41:44.185Z,708.75
2019-05-18T08:42:44.167Z,731.25
2019-05-18T08:43:44.157Z,725.62
2019-05-18T08:44:44.158Z,714.38
2019-05-18T08:45:44.149Z,720.00
2019-05-18T08:46:44.126Z,759.38
2019-05-18T08:47:44.124Z,798.75
2019-05-18T08:48:44.103Z,787.50
2019-05-18T08:49:44.093Z,742.50
2019-05-18T08:50:44.084Z,759.38
2019-05-18T08:51:44.084Z,736.88
2019-05-18T08:52:44.061Z,691.88
2019-05-18T08:53:44.064Z,669.38
2019-05-18T08:54:44.043Z,731.25
2019-05-18T08:55:44.037Z,742.50
2019-05-18T08:56:44.020Z,759.38
2019-05-18T08:57:44.024Z,753.75
2019-05-18T08:58:44.003Z,765.00
2019-05-18T08:59:44.003Z,765.00
2019-05-18T09:00:43.977Z,731.25
2019-05-18T09:01:43.966Z,720.00
2019-05-18T09:02:43.963Z,703.12
2019-05-18T09:03:43.956Z,708.75
2019-05-18T09:04:43.935Z,714.38
2019-05-18T09:05:43.952Z,686.25
2019-05-18T09:06:43.919Z,675.00
2019-05-18T09:07:43.903Z,691.88
2019-05-18T09:08:43.893Z,646.88
2019-05-18T09:09:43.897Z,641.25
2019-05-18T09:10:43.873Z,641.25
2019-05-18T09:11:43.872Z,658.12
2019-05-18T09:12:43.851Z,680.62
2019-05-18T09:13:43.841Z,691.88
2019-05-18T09:14:43.832Z,703.12
2019-05-18T09:15:43.841Z,731.25
2019-05-18T09:16:43.813Z,731.25
2019-05-18T09:17:43.807Z,736.88
2019-05-18T09:18:43.790Z,720.00
2019-05-18T09:19:43.775Z,720.00
2019-05-18T09:20:43.763Z,703.12
2019-05-18T09:21:43.762Z,703.12
2019-05-18T09:22:43.742Z,703.12
2019-05-18T09:23:43.788Z,680.62
2019-05-18T09:24:43.721Z,691.88
2019-05-18T09:25:43.712Z,680.62
2019-05-18T09:26:43.699Z,680.62
2019-05-18T09:27:43.699Z,675.00
2019-05-18T09:28:43.678Z,669.38
2019-05-18T09:29:43.687Z,663.75
2019-05-18T09:30:43.680Z,669.38
2019-05-18T09:31:43.648Z,663.75
2019-05-18T09:32:43.637Z,646.88
2019-05-18T09:33:43.644Z,652.50
2019-05-18T09:34:43.627Z,646.88
2019-05-18T09:35:43.621Z,641.25
2019-05-18T09:36:43.605Z,658.12
2019-05-18T09:37:43.587Z,669.38
2019-05-18T09:38:43.583Z,680.62
2019-05-18T09:39:43.612Z,686.25
2019-05-18T09:40:43.558Z,703.12
2019-05-18T09:41:43.569Z,714.38
2019-05-18T09:42:43.535Z,703.12
2019-05-18T09:43:43.526Z,697.50
2019-05-18T09:44:43.552Z,691.88
2019-05-18T09:45:43.514Z,675.00
2019-05-18T09:46:43.493Z,663.75
2019-05-18T09:47:43.502Z,663.75
2019-05-18T09:48:43.472Z,663.75
2019-05-18T09:49:43.460Z,641.25
2019-05-18T09:50:43.454Z,641.25
2019-05-18T09:51:43.456Z,635.62
2019-05-18T09:52:45.410Z,630.00
2019-05-18T09:53:51.117Z,635.62
2019-05-18T09:54:44.409Z,641.25
2019-05-18T09:55:43.399Z,652.50
2019-05-18T09:56:43.389Z,663.75
2019-05-18T09:57:43.389Z,652.50
2019-05-18T09:58:43.367Z,635.62
2019-05-18T09:59:43.383Z,618.75
2019-05-18T10:00:43.346Z,596.25
2019-05-18T10:01:43.337Z,590.62
2019-05-18T10:02:43.325Z,540.00
2019-05-18T10:03:43.327Z,511.88
2019-05-18T10:04:43.307Z,506.25
2019-05-18T10:05:43.308Z,517.50
2019-05-18T10:06:43.313Z,523.12
2019-05-18T10:07:43.280Z,540.00
2019-05-18T10:08:43.267Z,540.00
2019-05-18T10:09:43.264Z,551.25
2019-05-18T10:10:43.246Z,556.88
2019-05-18T10:11:43.243Z,551.25
2019-05-18T10:12:43.225Z,551.25
2019-05-18T10:13:43.225Z,556.88
2019-05-18T10:14:43.233Z,585.00
2019-05-18T10:15:43.203Z,590.62
2019-05-18T10:16:43.191Z,590.62
2019-05-18T10:17:43.267Z,590.62
2019-05-18T10:18:43.168Z,607.50
2019-05-18T10:19:43.168Z,635.62
2019-05-18T10:20:43.160Z,607.50
2019-05-18T10:21:43.143Z,585.00
2019-05-18T10:22:55.107Z,618.75
2019-05-18T10:23:44.120Z,691.88
2019-05-18T10:24:43.105Z,770.62
2019-05-18T10:25:43.091Z,596.25
2019-05-18T10:26:43.081Z,534.38
2019-05-18T10:27:43.080Z,523.12
2019-05-18T10:28:43.059Z,483.75
2019-05-18T10:29:46.404Z,585.00
2019-05-18T10:30:43.042Z,753.75
2019-05-18T10:31:43.029Z,916.88
2019-05-18T10:32:43.018Z,1389.38
2019-05-18T10:33:43.047Z,1080.00
2019-05-18T10:34:42.997Z,956.25
2019-05-18T10:35:43.020Z,1372.50
2019-05-18T10:36:42.975Z,1186.88
2019-05-18T10:37:42.965Z,2176.88
2019-05-18T10:38:42.954Z,1136.25
2019-05-18T10:39:42.958Z,2103.75
2019-05-18T10:40:43.081Z,1186.88
2019-05-18T10:41:42.934Z,1451.25
2019-05-18T10:42:42.911Z,2250.00
2019-05-18T10:43:46.880Z,787.50
2019-05-18T10:44:42.893Z,826.88
2019-05-18T10:45:45.025Z,736.88
2019-05-18T10:46:42.869Z,725.62
2019-05-18T10:47:42.894Z,686.25
2019-05-18T10:48:42.849Z,641.25
2019-05-18T10:49:42.838Z,646.88
2019-05-18T10:50:42.830Z,624.38
2019-05-18T10:51:42.835Z,585.00
2019-05-18T10:52:42.820Z,528.75
2019-05-18T10:53:42.820Z,489.38
2019-05-18T10:54:42.783Z,483.75
2019-05-18T10:55:42.779Z,438.75
2019-05-18T10:56:42.767Z,421.88
2019-05-18T10:57:42.773Z,405.00
2019-05-18T10:58:42.746Z,382.50
2019-05-18T10:59:42.738Z,371.25
2019-05-18T11:00:42.719Z,337.50
2019-05-18T11:01:44.021Z,320.62
2019-05-18T11:02:42.699Z,309.38
2019-05-18T11:03:42.700Z,315.00
2019-05-18T11:04:42.680Z,320.62
2019-05-18T11:05:42.687Z,309.38
2019-05-18T11:06:42.663Z,292.50
2019-05-18T11:07:42.648Z,303.75
2019-05-18T11:08:42.641Z,303.75
2019-05-18T11:09:42.636Z,303.75
2019-05-18T11:10:42.617Z,292.50
2019-05-18T11:11:42.617Z,286.88
2019-05-18T11:12:42.591Z,286.88
2019-05-18T11:13:42.580Z,286.88
2019-05-18T11:14:42.570Z,286.88
2019-05-18T11:15:42.569Z,286.88
2019-05-18T11:16:42.569Z,286.88
2019-05-18T11:17:42.541Z,286.88
2019-05-18T11:18:42.570Z,292.50
2019-05-18T11:19:42.517Z,298.12
2019-05-18T11:20:42.507Z,303.75
2019-05-18T11:21:42.512Z,315.00
2019-05-18T11:22:42.492Z,315.00
2019-05-18T11:23:44.932Z,309.38
2019-05-18T11:24:42.471Z,303.75
2019-05-18T11:25:42.453Z,298.12
2019-05-18T11:26:42.443Z,298.12
2019-05-18T11:27:42.442Z,298.12
2019-05-18T11:28:42.421Z,303.75
2019-05-18T11:29:42.413Z,315.00
2019-05-18T11:30:42.414Z,320.62
2019-05-18T11:31:42.390Z,320.62
2019-05-18T11:32:42.378Z,326.25
2019-05-18T11:33:42.377Z,331.88
2019-05-18T11:34:42.356Z,337.50
2019-05-18T11:35:42.355Z,337.50
2019-05-18T11:36:42.358Z,343.12
2019-05-18T11:37:42.334Z,326.25
2019-05-18T11:38:42.323Z,320.62
2019-05-18T11:39:42.315Z,343.12
2019-05-18T11:40:42.295Z,343.12
2019-05-18T11:41:42.927Z,343.12
2019-05-18T11:42:42.274Z,326.25
2019-05-18T11:43:42.262Z,348.75
2019-05-18T11:44:42.257Z,348.75
2019-05-18T11:45:42.280Z,354.38
2019-05-18T11:46:42.231Z,354.38
2019-05-18T11:47:42.226Z,354.38
2019-05-18T11:48:42.234Z,360.00
2019-05-18T11:49:42.198Z,360.00
2019-05-18T11:50:42.191Z,376.88
2019-05-18T11:51:42.195Z,393.75
2019-05-18T11:52:42.273Z,382.50
2019-05-18T11:53:42.170Z,371.25
2019-05-18T11:54:42.147Z,360.00
2019-05-18T11:55:42.136Z,348.75
2019-05-18T11:56:42.157Z,337.50
2019-05-18T11:57:42.145Z,320.62
2019-05-18T11:58:42.109Z,303.75
2019-05-18T11:59:42.106Z,298.12
2019-05-18T12:00:42.090Z,292.50
2019-05-18T12:01:42.074Z,286.88
2019-05-18T12:02:42.070Z,281.25
2019-05-18T12:03:42.068Z,281.25
2019-05-18T12:04:42.058Z,275.62
2019-05-18T12:05:42.077Z,275.62
2019-05-18T12:06:42.033Z,270.00
2019-05-18T12:07:42.015Z,270.00
2019-05-18T12:08:42.010Z,264.38
2019-05-18T12:09:42.001Z,264.38
2019-05-18T12:10:42.006Z,258.75
2019-05-18T12:11:41.980Z,258.75
2019-05-18T12:12:41.956Z,258.75
2019-05-18T12:13:41.950Z,258.75
2019-05-18T12:14:41.936Z,258.75
2019-05-18T12:15:42.186Z,258.75
2019-05-18T12:16:41.913Z,253.12
2019-05-18T12:17:41.920Z,253.12
2019-05-18T12:18:41.895Z,247.50
2019-05-18T12:19:41.884Z,253.12
2019-05-18T12:20:41.873Z,253.12
2019-05-18T12:21:41.874Z,258.75
2019-05-18T12:22:41.851Z,264.38
2019-05-18T12:23:41.853Z,264.38
2019-05-18T12:24:41.830Z,264.38
2019-05-18T12:25:41.824Z,264.38
2019-05-18T12:26:41.805Z,264.38
2019-05-18T12:27:41.831Z,264.38
2019-05-18T12:28:41.786Z,258.75
2019-05-18T12:29:41.792Z,258.75
2019-05-18T12:30:41.763Z,258.75
2019-05-18T12:31:41.754Z,258.75
2019-05-18T12:32:41.742Z,258.75
2019-05-18T12:33:41.742Z,264.38
2019-05-18T12:34:44.748Z,264.38
2019-05-18T12:35:41.727Z,264.38
2019-05-18T12:36:41.703Z,258.75
2019-05-18T12:37:41.692Z,258.75